Terminal Aerodrome Forecast
Issued by NWS Salt Lake City, UT

Home | Current Version | Previous Version | Text Only | Print | Product List | Glossary On
Versions: 1 2 3 4 5 6 7 8 9 10 11 12 13 14 15 16 17 18 19 20 21 22 23 24
000
FTUS45 KSLC 190523
TAFSLC
TAF
KSLC 190523Z 1906/2012 15007KT P6SM SCT200
     FM191600 17012G18KT P6SM SCT200
     FM192100 32004KT P6SM SCT200
     FM200200 17008KT P6SM SCT200=

USA.gov is the U.S. government's official web portal to all federal, state and local government web resources and services.